Time;durP1;ratioP1;P1;durP2;ratioP2;P2;SDS_P1;SDS_P2;PMS_P1;PMS_P2;Temp;Humidity;BMP_temperature;BMP_pressure;BME280_temperature;BME280_humidity;BME280_pressure;Samples;Min_cycle;Max_cycle;Signal;HPM_P1;HPM_P2
2022/10/08 00:01:15;;;;;;;44.80;21.30;;;12.00;99.90;;;;;;5023166;28;20550;-62
2022/10/08 00:03:43;;;;;;;53.90;22.50;;;12.00;99.90;;;;;;5039127;28;20193;-63
2022/10/08 00:06:12;;;;;;;69.67;23.50;;;12.00;99.90;;;;;;5028020;28;20497;-63
2022/10/08 00:08:40;;;;;;;64.50;21.27;;;12.00;99.90;;;;;;5023994;28;20442;-63
2022/10/08 00:11:15;;;;;;;50.77;21.07;;;12.00;99.90;;;;;;5021470;28;20808;-63
2022/10/08 00:13:43;;;;;;;76.37;22.27;;;12.00;99.90;;;;;;5022900;28;20441;-63
2022/10/08 00:16:12;;;;;;;39.97;19.97;;;11.90;99.90;;;;;;5021321;28;20477;-63
2022/10/08 00:18:39;;;;;;;57.23;20.17;;;11.90;99.90;;;;;;5023545;28;20991;-63
2022/10/08 00:21:13;;;;;;;40.43;19.43;;;11.90;99.90;;;;;;5005077;28;20431;-63
2022/10/08 00:23:43;;;;;;;37.70;20.77;;;11.90;99.90;;;;;;5032941;28;20479;-63
2022/10/08 00:26:10;;;;;;;46.70;20.90;;;11.90;99.90;;;;;;5016539;28;20450;-63
2022/10/08 00:28:37;;;;;;;49.60;21.40;;;11.90;99.90;;;;;;5031898;28;20437;-63
2022/10/08 00:31:11;;;;;;;52.60;22.13;;;11.90;99.90;;;;;;5029842;28;20438;-63
2022/10/08 00:33:37;;;;;;;60.20;22.73;;;11.90;99.90;;;;;;5019664;28;20442;-64
2022/10/08 00:36:05;;;;;;;81.77;21.23;;;11.90;99.90;;;;;;5026013;28;20477;-63
2022/10/08 00:38:31;;;;;;;58.73;22.70;;;11.90;99.90;;;;;;5004088;28;20458;-63
2022/10/08 00:40:58;;;;;;;88.53;22.73;;;11.90;99.90;;;;;;5026379;28;20435;-63
2022/10/08 00:43:42;;;;;;;73.93;23.30;;;11.90;99.90;;;;;;5029630;28;20267;-63
2022/10/08 00:46:28;;;;;;;65.77;23.20;;;11.90;99.90;;;;;;5017365;28;20458;-63
2022/10/08 00:48:56;;;;;;;56.83;22.57;;;11.90;99.90;;;;;;5000734;28;20434;-63
2022/10/08 00:51:23;;;;;;;57.87;21.50;;;11.90;99.90;;;;;;5021030;28;21032;-63
2022/10/08 00:53:49;;;;;;;95.10;22.93;;;11.90;99.90;;;;;;5026719;28;21009;-63
2022/10/08 00:56:15;;;;;;;64.07;21.73;;;11.90;99.90;;;;;;5021404;28;22451;-63
2022/10/08 00:58:42;;;;;;;56.30;22.40;;;11.80;99.90;;;;;;5029660;28;20461;-63
2022/10/08 01:01:08;;;;;;;64.97;21.97;;;11.80;99.90;;;;;;5029397;28;20235;-63
2022/10/08 01:03:33;;;;;;;43.27;21.73;;;11.80;99.90;;;;;;5025803;28;20544;-63
2022/10/08 01:05:59;;;;;;;55.23;23.00;;;11.80;99.90;;;;;;5026026;28;20204;-63
2022/10/08 01:08:40;;;;;;;56.47;20.67;;;11.80;99.90;;;;;;5023585;28;20263;-63
2022/10/08 01:11:47;;;;;;;132.33;22.60;;;11.80;99.90;;;;;;5021410;28;20178;-63
2022/10/08 01:14:21;;;;;;;38.47;19.80;;;11.70;99.90;;;;;;4979896;28;20951;-63
2022/10/08 01:17:05;;;;;;;48.37;20.73;;;11.70;99.90;;;;;;5030075;28;20985;-62
2022/10/08 01:19:46;;;;;;;36.60;19.40;;;11.70;99.90;;;;;;5029301;28;20457;-63
2022/10/08 01:22:41;;;;;;;33.90;19.20;;;11.70;99.90;;;;;;5027603;28;20430;-63
2022/10/08 01:25:34;;;;;;;44.73;20.67;;;11.70;99.90;;;;;;5035742;28;20450;-63
2022/10/08 01:28:27;;;;;;;48.97;20.50;;;11.70;99.90;;;;;;5029908;28;20829;-62
2022/10/08 01:30:58;;;;;;;58.30;20.57;;;11.70;99.90;;;;;;5022175;28;20457;-62
2022/10/08 01:33:34;;;;;;;40.87;20.87;;;11.70;99.90;;;;;;5026525;28;20438;-63
2022/10/08 01:36:03;;;;;;;42.63;18.90;;;11.70;99.90;;;;;;5024804;28;20824;-63
2022/10/08 01:38:32;;;;;;;46.10;19.90;;;11.70;99.90;;;;;;5031116;28;20454;-63
2022/10/08 01:41:02;;;;;;;56.80;21.13;;;11.70;99.90;;;;;;5032799;28;20513;-63
2022/10/08 01:43:33;;;;;;;38.97;19.63;;;11.70;99.90;;;;;;5037207;28;20788;-63
2022/10/08 01:46:20;;;;;;;58.40;21.50;;;11.70;99.90;;;;;;5029368;28;20833;-63
2022/10/08 01:48:48;;;;;;;76.17;22.23;;;11.70;99.90;;;;;;5035692;28;20556;-63
2022/10/08 01:51:23;;;;;;;109.93;21.93;;;11.70;99.90;;;;;;5030670;28;20811;-62
2022/10/08 01:53:50;;;;;;;78.50;20.63;;;11.70;99.90;;;;;;5025298;28;20414;-63
2022/10/08 01:56:23;;;;;;;112.90;20.90;;;11.60;99.90;;;;;;5029973;28;21057;-63
2022/10/08 01:58:54;;;;;;;89.13;21.60;;;11.60;99.90;;;;;;5028068;28;20458;-63
2022/10/08 02:01:39;;;;;;;99.47;22.27;;;11.60;99.90;;;;;;5028700;28;20414;-63
2022/10/08 02:06:58;;;;;;;211.93;26.00;;;11.50;99.90;;;;;;5020548;28;20466;-63
2022/10/08 02:09:26;;;;;;;222.23;25.13;;;11.50;99.90;;;;;;5025093;28;20448;-63
2022/10/08 02:11:51;;;;;;;76.07;22.30;;;11.50;99.90;;;;;;5025860;28;20432;-63
2022/10/08 02:14:18;;;;;;;71.33;20.70;;;11.50;99.90;;;;;;5042622;28;20410;-62
2022/10/08 02:16:53;;;;;;;103.93;21.90;;;11.50;99.90;;;;;;5023587;28;20704;-63
2022/10/08 02:19:30;;;;;;;111.70;23.30;;;11.50;99.90;;;;;;5029124;28;21032;-63
2022/10/08 02:22:00;;;;;;;55.97;20.30;;;11.40;99.90;;;;;;5024045;28;20469;-63
2022/10/08 02:24:44;;;;;;;122.23;24.60;;;11.40;99.90;;;;;;5005394;28;20434;-62
2022/10/08 02:27:11;;;;;;;134.73;24.20;;;11.40;99.90;;;;;;5022819;28;21186;-62
2022/10/08 02:29:43;;;;;;;80.80;22.43;;;11.40;99.90;;;;;;5011536;28;20422;-62
2022/10/08 02:32:28;;;;;;;162.37;24.60;;;11.30;99.90;;;;;;5037779;28;20436;-62
2022/10/08 02:35:06;;;;;;;135.67;23.57;;;11.30;99.90;;;;;;5027044;28;20434;-63
2022/10/08 02:37:42;;;;;;;77.63;20.67;;;11.30;99.90;;;;;;5026102;28;20425;-62
2022/10/08 02:40:12;;;;;;;110.77;23.50;;;11.30;99.90;;;;;;5020379;28;20447;-62
2022/10/08 02:42:42;;;;;;;140.80;22.50;;;11.30;99.90;;;;;;5023002;28;20422;-62
2022/10/08 02:45:15;;;;;;;113.40;23.80;;;11.30;99.90;;;;;;5029050;28;20449;-62
2022/10/08 02:47:44;;;;;;;79.33;20.70;;;11.30;99.90;;;;;;5022071;28;20843;-62
2022/10/08 02:50:14;;;;;;;49.63;18.93;;;11.30;99.90;;;;;;5024535;28;20422;-62
2022/10/08 02:52:42;;;;;;;54.83;20.40;;;11.20;99.90;;;;;;5035085;28;20407;-62
2022/10/08 02:55:24;;;;;;;66.97;20.50;;;11.30;99.90;;;;;;5030905;28;20457;-62
2022/10/08 02:57:59;;;;;;;81.57;22.67;;;11.30;99.90;;;;;;5025623;28;20447;-62
2022/10/08 03:00:30;;;;;;;115.17;23.83;;;11.30;99.90;;;;;;5035751;28;20454;-62
2022/10/08 03:03:00;;;;;;;75.27;23.27;;;11.30;99.90;;;;;;5019757;28;20434;-63
2022/10/08 03:05:27;;;;;;;63.23;21.73;;;11.30;99.90;;;;;;5028289;28;20457;-63
2022/10/08 03:07:54;;;;;;;113.13;23.77;;;11.20;99.90;;;;;;5030254;28;20459;-63
2022/10/08 03:10:24;;;;;;;82.77;22.13;;;11.30;99.90;;;;;;5015039;28;20449;-63
2022/10/08 03:12:52;;;;;;;62.93;22.97;;;11.30;99.90;;;;;;5033708;28;20422;-62
2022/10/08 03:15:17;;;;;;;119.47;22.87;;;11.30;99.90;;;;;;5031008;28;20554;-62
2022/10/08 03:17:46;;;;;;;156.13;32.83;;;11.30;99.90;;;;;;5024779;28;20557;-62
2022/10/08 03:20:12;;;;;;;84.90;26.20;;;11.20;99.90;;;;;;5023569;28;20168;-62
2022/10/08 03:22:38;;;;;;;73.13;23.70;;;11.20;99.90;;;;;;5021680;28;20435;-62
2022/10/08 03:25:04;;;;;;;60.80;23.70;;;11.20;99.90;;;;;;5024664;28;20444;-62
2022/10/08 03:27:30;;;;;;;79.63;24.60;;;11.20;99.90;;;;;;5025465;28;20442;-62
2022/10/08 03:29:56;;;;;;;59.90;23.37;;;11.20;99.90;;;;;;5024808;28;20269;-62
2022/10/08 03:32:25;;;;;;;79.73;23.47;;;11.20;99.90;;;;;;5017870;28;20184;-64
2022/10/08 03:34:51;;;;;;;64.40;23.50;;;11.20;99.90;;;;;;5022316;28;20465;-62
2022/10/08 03:37:17;;;;;;;46.80;22.50;;;11.20;99.90;;;;;;5027261;28;20437;-62
2022/10/08 03:39:43;;;;;;;84.97;23.73;;;11.20;99.90;;;;;;5029435;28;20835;-63
2022/10/08 03:42:09;;;;;;;70.60;21.43;;;11.20;99.90;;;;;;5016987;28;20753;-62
2022/10/08 03:44:34;;;;;;;67.47;23.43;;;11.30;99.90;;;;;;5033697;28;20259;-62
2022/10/08 03:47:00;;;;;;;48.63;21.87;;;11.20;99.90;;;;;;5027006;28;20540;-62
2022/10/08 03:49:26;;;;;;;44.73;22.83;;;11.30;99.90;;;;;;5008401;28;20712;-63
2022/10/08 03:51:52;;;;;;;47.67;21.37;;;11.30;99.90;;;;;;5029184;28;20178;-62
2022/10/08 03:54:17;;;;;;;56.77;22.80;;;11.30;99.90;;;;;;5025968;28;20180;-62
2022/10/08 03:56:43;;;;;;;64.70;24.27;;;11.30;99.90;;;;;;5018297;28;20203;-62
2022/10/08 03:59:09;;;;;;;48.10;24.03;;;11.30;99.90;;;;;;5011589;28;20250;-62
2022/10/08 04:01:34;;;;;;;76.00;23.97;;;11.30;99.90;;;;;;5026698;28;20228;-62
2022/10/08 04:04:00;;;;;;;87.50;23.00;;;11.30;99.90;;;;;;5028305;28;20258;-62
2022/10/08 04:06:26;;;;;;;48.43;21.50;;;11.30;99.90;;;;;;5024743;28;20187;-62
2022/10/08 04:08:52;;;;;;;51.13;22.20;;;11.30;99.90;;;;;;5020023;28;20184;-62
2022/10/08 04:11:19;;;;;;;61.90;21.80;;;11.30;99.90;;;;;;5000525;28;20230;-63
2022/10/08 04:13:44;;;;;;;50.20;21.77;;;11.30;99.90;;;;;;5022514;28;20458;-62
2022/10/08 04:16:12;;;;;;;52.53;23.27;;;11.30;99.90;;;;;;5023738;28;21460;-62
2022/10/08 04:18:38;;;;;;;63.73;22.03;;;11.30;99.90;;;;;;5021874;28;20219;-62
2022/10/08 04:21:07;;;;;;;52.57;22.27;;;11.30;99.90;;;;;;5020803;28;20516;-62
2022/10/08 04:23:35;;;;;;;71.87;22.50;;;11.30;99.90;;;;;;5015533;28;20981;-63
2022/10/08 04:26:01;;;;;;;42.97;20.17;;;11.30;99.90;;;;;;5017827;28;20856;-62
2022/10/08 04:28:27;;;;;;;89.87;22.80;;;11.30;99.90;;;;;;5026232;28;20438;-62
2022/10/08 04:31:01;;;;;;;52.50;22.50;;;11.30;99.90;;;;;;5011585;28;20940;-62
2022/10/08 04:33:28;;;;;;;66.00;22.77;;;11.30;99.90;;;;;;5002991;28;20517;-62
2022/10/08 04:35:54;;;;;;;52.10;21.73;;;11.30;99.90;;;;;;5024282;28;20456;-62
2022/10/08 04:38:20;;;;;;;55.27;22.60;;;11.30;99.90;;;;;;5003653;28;20845;-63
2022/10/08 04:40:46;;;;;;;50.00;21.47;;;11.30;99.90;;;;;;5022588;28;20450;-63
2022/10/08 04:43:12;;;;;;;51.40;22.43;;;11.30;99.90;;;;;;5005274;28;20431;-62
2022/10/08 04:45:42;;;;;;;52.03;21.03;;;11.30;99.90;;;;;;5021203;28;20208;-62
2022/10/08 04:48:08;;;;;;;101.43;24.97;;;11.30;99.90;;;;;;5025055;28;20423;-63
2022/10/08 04:50:34;;;;;;;74.30;24.23;;;11.40;99.90;;;;;;5029176;28;20568;-62
2022/10/08 04:52:59;;;;;;;52.97;22.83;;;11.30;99.90;;;;;;5027295;28;20212;-62
2022/10/08 04:55:25;;;;;;;56.37;23.00;;;11.40;99.90;;;;;;5028140;28;20261;-63
2022/10/08 04:57:50;;;;;;;101.90;23.30;;;11.40;99.90;;;;;;5025668;28;20670;-62
2022/10/08 05:00:16;;;;;;;51.00;21.83;;;11.40;99.90;;;;;;5016421;28;20188;-62
2022/10/08 05:02:42;;;;;;;48.87;23.10;;;11.40;99.90;;;;;;5013785;28;20176;-62
2022/10/08 05:05:08;;;;;;;63.87;25.70;;;11.40;99.90;;;;;;5017915;28;20199;-62
2022/10/08 05:07:33;;;;;;;96.80;23.37;;;11.40;99.90;;;;;;5024722;28;20176;-62
2022/10/08 05:09:59;;;;;;;92.00;24.40;;;11.30;99.90;;;;;;5024691;28;20642;-62
2022/10/08 05:12:24;;;;;;;112.63;24.80;;;11.30;99.90;;;;;;5003482;28;20200;-62
2022/10/08 05:14:50;;;;;;;53.13;21.43;;;11.30;99.90;;;;;;5025218;28;20172;-63
2022/10/08 05:17:16;;;;;;;73.47;22.40;;;11.20;99.90;;;;;;5018330;28;20759;-62
2022/10/08 05:19:42;;;;;;;51.93;21.87;;;11.20;99.90;;;;;;5025639;28;20473;-63
2022/10/08 05:22:08;;;;;;;62.90;23.20;;;11.20;99.90;;;;;;5026712;28;20183;-62
2022/10/08 05:24:33;;;;;;;90.07;25.40;;;11.20;99.90;;;;;;5017977;28;20210;-62
2022/10/08 05:26:59;;;;;;;64.67;22.77;;;11.20;99.90;;;;;;5010407;28;20207;-62
2022/10/08 05:29:25;;;;;;;56.83;22.30;;;11.20;99.90;;;;;;5017536;28;20295;-62
2022/10/08 05:31:50;;;;;;;56.10;21.70;;;11.20;99.90;;;;;;5017670;28;20183;-62
2022/10/08 05:34:16;;;;;;;45.53;22.67;;;11.20;99.90;;;;;;5017348;28;20438;-62
2022/10/08 05:36:42;;;;;;;55.40;22.67;;;11.30;99.90;;;;;;5014024;28;20315;-62
2022/10/08 05:39:09;;;;;;;49.50;23.47;;;11.30;99.90;;;;;;5015461;28;20577;-62
2022/10/08 05:41:36;;;;;;;46.33;21.90;;;11.30;99.90;;;;;;5018686;28;20172;-62
2022/10/08 05:44:02;;;;;;;45.07;20.40;;;11.30;99.90;;;;;;5016230;28;20438;-62
2022/10/08 05:46:30;;;;;;;54.50;22.90;;;11.30;99.90;;;;;;5021898;28;20454;-62
2022/10/08 05:48:58;;;;;;;51.30;22.50;;;11.30;99.90;;;;;;5023456;28;20427;-64
2022/10/08 05:51:23;;;;;;;56.43;22.30;;;11.30;99.90;;;;;;5027039;28;20541;-63
2022/10/08 05:53:50;;;;;;;50.80;21.83;;;11.40;99.90;;;;;;5021797;28;20434;-63
2022/10/08 05:56:19;;;;;;;52.93;21.30;;;11.30;99.90;;;;;;5018488;28;20480;-62
2022/10/08 05:58:46;;;;;;;59.50;24.23;;;11.30;99.90;;;;;;5028167;28;20457;-62
2022/10/08 06:01:13;;;;;;;56.10;22.80;;;11.40;99.90;;;;;;5014448;28;20438;-62
2022/10/08 06:03:38;;;;;;;63.57;22.23;;;11.40;99.90;;;;;;5015326;28;20422;-62
2022/10/08 06:06:06;;;;;;;54.17;23.10;;;11.40;99.90;;;;;;5021548;28;20451;-62
2022/10/08 06:08:33;;;;;;;75.73;23.60;;;11.40;99.90;;;;;;5003004;28;20183;-62
2022/10/08 06:10:59;;;;;;;68.27;25.53;;;11.40;99.90;;;;;;5017285;28;20851;-61
2022/10/08 06:13:25;;;;;;;58.87;22.43;;;11.40;99.90;;;;;;5018987;28;20443;-61
2022/10/08 06:16:01;;;;;;;65.80;22.90;;;11.40;99.90;;;;;;5019717;28;21242;-62
2022/10/08 06:18:30;;;;;;;75.63;23.90;;;11.40;99.90;;;;;;5022702;28;20207;-62
2022/10/08 06:20:56;;;;;;;64.90;23.50;;;11.40;99.90;;;;;;5019063;28;20865;-62
2022/10/08 06:23:23;;;;;;;66.03;22.90;;;11.40;99.90;;;;;;5019713;28;20942;-62
2022/10/08 06:25:49;;;;;;;127.30;31.10;;;11.50;99.90;;;;;;5021140;28;20457;-62
2022/10/08 06:28:15;;;;;;;70.53;27.70;;;11.50;99.90;;;;;;5021093;28;20509;-63
2022/10/08 06:30:42;;;;;;;55.37;24.50;;;11.50;99.90;;;;;;5016969;28;20195;-63
2022/10/08 06:33:09;;;;;;;49.40;22.33;;;11.50;99.90;;;;;;5021464;28;20439;-63
2022/10/08 06:35:36;;;;;;;51.70;23.17;;;11.50;99.90;;;;;;5010682;28;20426;-63
2022/10/08 06:38:02;;;;;;;47.37;22.17;;;11.50;99.90;;;;;;5028268;28;20520;-63
2022/10/08 06:40:31;;;;;;;78.67;24.70;;;11.50;99.90;;;;;;5018904;28;20494;-62
2022/10/08 06:42:58;;;;;;;55.47;23.70;;;11.50;99.90;;;;;;5006766;28;20465;-63
2022/10/08 06:45:23;;;;;;;66.17;25.80;;;11.60;99.90;;;;;;5023681;28;20485;-63
2022/10/08 06:47:49;;;;;;;52.70;24.37;;;11.60;99.90;;;;;;5014790;28;20992;-67
2022/10/08 06:50:15;;;;;;;72.07;27.37;;;11.60;99.90;;;;;;5022192;28;20184;-63
2022/10/08 06:52:40;;;;;;;64.33;25.93;;;11.60;99.90;;;;;;5026304;28;20180;-63
2022/10/08 06:55:06;;;;;;;90.03;27.63;;;11.60;99.90;;;;;;5015689;28;20207;-63
2022/10/08 06:57:31;;;;;;;84.90;27.37;;;11.70;99.90;;;;;;5024632;28;20279;-63
2022/10/08 06:59:57;;;;;;;90.77;27.27;;;11.70;99.90;;;;;;5010699;28;20670;-63
2022/10/08 07:02:23;;;;;;;90.87;25.30;;;11.70;99.90;;;;;;5025697;28;20180;-63
2022/10/08 07:04:49;;;;;;;69.60;24.17;;;11.70;99.90;;;;;;5024417;28;20446;-62
2022/10/08 07:07:15;;;;;;;109.70;32.33;;;11.70;99.90;;;;;;5030691;28;20426;-63
2022/10/08 07:09:40;;;;;;;105.37;33.03;;;11.70;99.90;;;;;;5018071;28;20276;-64
2022/10/08 07:12:06;;;;;;;138.20;38.73;;;11.80;99.90;;;;;;5025200;28;20194;-63
2022/10/08 07:14:31;;;;;;;146.40;40.47;;;11.80;99.90;;;;;;5023291;28;20238;-63
2022/10/08 07:16:57;;;;;;;114.47;31.73;;;11.90;99.90;;;;;;5025812;28;20215;-63
2022/10/08 07:19:23;;;;;;;84.17;29.23;;;11.90;99.90;;;;;;5020484;28;20687;-63
2022/10/08 07:21:49;;;;;;;105.30;32.80;;;11.90;99.90;;;;;;5022834;28;20183;-63
2022/10/08 07:24:14;;;;;;;119.03;35.40;;;11.90;99.90;;;;;;5030381;28;20527;-62
2022/10/08 07:26:40;;;;;;;117.73;37.43;;;12.00;99.90;;;;;;5020413;28;20286;-64
2022/10/08 07:29:13;;;;;;;123.00;39.50;;;12.00;99.90;;;;;;5026283;28;20179;-63
2022/10/08 07:31:39;;;;;;;145.87;41.00;;;12.00;99.90;;;;;;5017584;28;20195;-64
2022/10/08 07:34:08;;;;;;;122.27;39.37;;;12.10;99.90;;;;;;5017557;28;20430;-63
2022/10/08 07:36:34;;;;;;;125.73;38.73;;;12.10;99.90;;;;;;5008785;28;20223;-64
2022/10/08 07:39:03;;;;;;;135.83;38.90;;;12.20;99.90;;;;;;5012464;28;20470;-65
2022/10/08 07:41:29;;;;;;;125.90;40.40;;;12.20;99.90;;;;;;5018176;28;20434;-64
2022/10/08 07:43:59;;;;;;;130.93;40.53;;;12.30;99.90;;;;;;5017256;28;20514;-65
2022/10/08 07:46:27;;;;;;;119.53;39.90;;;12.30;99.90;;;;;;5017412;28;20467;-64
2022/10/08 07:48:57;;;;;;;115.03;39.23;;;12.30;99.90;;;;;;5019653;28;20469;-64
2022/10/08 07:51:25;;;;;;;122.40;42.07;;;12.40;99.90;;;;;;5016689;28;20473;-64
2022/10/08 07:53:50;;;;;;;114.73;40.63;;;12.40;99.90;;;;;;5014020;28;20446;-63
2022/10/08 07:56:19;;;;;;;119.43;37.60;;;12.50;99.90;;;;;;5001074;28;20465;-64
2022/10/08 07:58:46;;;;;;;131.80;41.97;;;12.50;99.90;;;;;;5010840;28;20214;-62
2022/10/08 08:01:14;;;;;;;108.93;39.93;;;12.60;99.90;;;;;;5020974;28;20588;-62
2022/10/08 08:03:40;;;;;;;121.33;40.17;;;12.60;99.90;;;;;;5023460;28;21009;-62
2022/10/08 08:06:09;;;;;;;111.40;38.10;;;12.70;99.90;;;;;;5024641;28;20512;-62
2022/10/08 08:08:36;;;;;;;106.43;39.37;;;12.80;99.90;;;;;;5019585;28;20180;-62
2022/10/08 08:11:05;;;;;;;111.80;39.33;;;12.80;99.90;;;;;;5028097;28;20438;-62
2022/10/08 08:13:33;;;;;;;110.07;36.77;;;12.90;99.90;;;;;;5007039;28;20805;-62
2022/10/08 08:16:13;;;;;;;100.37;36.33;;;12.90;99.90;;;;;;5005970;28;20517;-62
2022/10/08 08:18:41;;;;;;;89.30;35.03;;;13.00;99.90;;;;;;5027651;28;20458;-62
2022/10/08 08:21:10;;;;;;;76.57;33.07;;;13.10;99.90;;;;;;5025003;28;20438;-62
2022/10/08 08:23:41;;;;;;;82.10;30.67;;;13.10;99.90;;;;;;5022923;28;20423;-60
2022/10/08 08:26:10;;;;;;;78.87;31.07;;;13.20;99.90;;;;;;5023959;28;20427;-62
2022/10/08 08:28:36;;;;;;;74.67;31.07;;;13.20;99.90;;;;;;5026579;28;20488;-59
2022/10/08 08:31:22;;;;;;;83.13;29.87;;;13.20;99.90;;;;;;5017134;28;20505;-60
2022/10/08 08:33:50;;;;;;;63.03;29.03;;;13.30;99.90;;;;;;5019857;28;20439;-60
2022/10/08 08:36:24;;;;;;;67.00;27.63;;;13.30;99.90;;;;;;5025703;28;20536;-60
2022/10/08 08:38:49;;;;;;;61.50;28.27;;;13.40;99.90;;;;;;5010683;28;21044;-60
2022/10/08 08:41:54;;;;;;;60.80;28.80;;;13.40;99.90;;;;;;5029374;28;20434;-60
2022/10/08 08:44:39;;;;;;;49.03;25.53;;;13.50;99.90;;;;;;5010894;28;20263;-62
2022/10/08 08:47:23;;;;;;;51.07;27.10;;;13.50;99.90;;;;;;5021336;28;20450;-60
2022/10/08 08:50:04;;;;;;;61.67;26.93;;;13.50;99.90;;;;;;5022487;28;20434;-61
2022/10/08 08:52:36;;;;;;;47.03;23.57;;;13.50;99.90;;;;;;5020248;28;20971;-62
2022/10/08 08:55:18;;;;;;;52.27;25.30;;;13.50;99.90;;;;;;5020112;28;20941;-61
2022/10/08 08:58:22;;;;;;;44.50;23.60;;;13.50;99.90;;;;;;5014635;28;20433;-61
2022/10/08 09:00:58;;;;;;;53.23;26.93;;;13.50;99.90;;;;;;5027436;28;20430;-60
2022/10/08 09:03:29;;;;;;;58.00;26.37;;;13.50;99.90;;;;;;5026363;28;20492;-60
2022/10/08 09:05:59;;;;;;;52.23;25.40;;;13.60;99.90;;;;;;5028397;28;20909;-62
2022/10/08 09:08:34;;;;;;;52.70;25.97;;;13.60;99.90;;;;;;5023889;28;20449;-63
2022/10/08 09:11:02;;;;;;;53.27;24.70;;;13.70;99.90;;;;;;5012412;28;20425;-61
2022/10/08 09:13:35;;;;;;;53.87;25.37;;;13.80;99.90;;;;;;5026412;28;20441;-61
2022/10/08 09:16:01;;;;;;;45.10;23.97;;;14.00;99.90;;;;;;5028471;28;20452;-62
2022/10/08 09:18:27;;;;;;;42.80;22.77;;;14.10;99.90;;;;;;5028683;28;20465;-62
2022/10/08 09:20:53;;;;;;;38.00;22.80;;;14.30;99.90;;;;;;5031943;28;20780;-61
2022/10/08 09:23:22;;;;;;;47.70;23.87;;;14.40;99.90;;;;;;5029126;28;20714;-62
2022/10/08 09:26:14;;;;;;;41.03;21.33;;;14.40;99.90;;;;;;5031843;28;20187;-61
2022/10/08 09:28:44;;;;;;;38.37;21.93;;;14.50;99.90;;;;;;5022533;28;20442;-62
2022/10/08 09:31:35;;;;;;;42.73;21.13;;;14.60;99.90;;;;;;5025100;28;20441;-62
2022/10/08 09:34:15;;;;;;;37.23;20.33;;;14.60;99.90;;;;;;5030303;28;20528;-61
2022/10/08 09:36:46;;;;;;;33.70;17.80;;;14.70;99.90;;;;;;5033329;28;20524;-61
2022/10/08 09:39:34;;;;;;;27.90;17.00;;;14.80;99.90;;;;;;5020852;28;20477;-62
2022/10/08 09:42:05;;;;;;;34.50;17.23;;;14.90;99.90;;;;;;5013337;28;21031;-61
2022/10/08 09:44:57;;;;;;;37.37;17.20;;;14.90;99.90;;;;;;5032621;28;20434;-60
2022/10/08 09:47:25;;;;;;;26.13;13.30;;;14.90;99.90;;;;;;5023057;28;20445;-62
2022/10/08 09:50:12;;;;;;;26.30;13.57;;;14.90;99.90;;;;;;5029151;28;20487;-62
2022/10/08 09:52:39;;;;;;;28.23;14.37;;;14.80;99.90;;;;;;5020514;28;20476;-60
2022/10/08 09:55:18;;;;;;;24.00;13.70;;;14.80;99.90;;;;;;5019566;28;20512;-61
2022/10/08 09:57:48;;;;;;;18.70;12.90;;;14.80;99.90;;;;;;5001489;28;21331;-61
2022/10/08 10:00:29;;;;;;;33.03;13.90;;;14.80;99.90;;;;;;5013409;28;20904;-61
2022/10/08 10:02:57;;;;;;;27.30;13.97;;;14.80;99.90;;;;;;5018843;28;20454;-64
2022/10/08 10:05:28;;;;;;;26.73;13.33;;;14.80;99.90;;;;;;5012847;28;20482;-62
2022/10/08 10:07:54;;;;;;;21.63;13.20;;;14.80;99.90;;;;;;5027758;28;21243;-62
2022/10/08 10:10:36;;;;;;;26.00;13.30;;;14.80;99.90;;;;;;5029839;28;20430;-61
2022/10/08 10:13:18;;;;;;;20.87;12.20;;;14.80;99.90;;;;;;5025568;28;20183;-62
2022/10/08 10:15:55;;;;;;;27.43;12.00;;;14.90;99.90;;;;;;5023944;28;20466;-62
2022/10/08 10:18:29;;;;;;;20.30;11.10;;;14.90;99.90;;;;;;5030007;28;20468;-62
2022/10/08 10:21:00;;;;;;;24.13;12.33;;;14.90;99.90;;;;;;5022931;28;20557;-61
2022/10/08 10:23:28;;;;;;;22.20;11.90;;;15.00;99.90;;;;;;5022668;28;20961;-62
2022/10/08 10:26:10;;;;;;;26.77;11.20;;;15.00;99.90;;;;;;5028200;28;20462;-64
2022/10/08 10:28:53;;;;;;;18.60;9.43;;;15.00;99.90;;;;;;5022659;28;20418;-61
2022/10/08 10:31:26;;;;;;;12.60;8.07;;;15.10;99.90;;;;;;5019898;28;20431;-62
2022/10/08 10:34:11;;;;;;;18.63;7.90;;;15.10;99.90;;;;;;5023526;28;20540;-61
2022/10/08 10:36:42;;;;;;;9.87;6.90;;;15.20;99.90;;;;;;5028468;28;20442;-62
2022/10/08 10:39:11;;;;;;;16.47;7.67;;;15.20;99.90;;;;;;5026134;28;20454;-61
2022/10/08 10:41:42;;;;;;;13.60;6.67;;;15.20;99.90;;;;;;5024665;28;20438;-62
2022/10/08 10:44:14;;;;;;;11.70;6.87;;;15.20;99.90;;;;;;5027290;28;20461;-61
2022/10/08 10:46:49;;;;;;;12.30;7.53;;;15.20;99.90;;;;;;5024351;28;20495;-62
2022/10/08 10:49:19;;;;;;;16.13;6.93;;;15.30;99.90;;;;;;5019287;28;20437;-64
2022/10/08 10:52:09;;;;;;;13.23;7.33;;;15.30;99.90;;;;;;5014942;28;20525;-63
2022/10/08 10:54:57;;;;;;;16.60;7.40;;;15.30;99.90;;;;;;5019409;28;20997;-62
2022/10/08 10:57:26;;;;;;;11.80;6.50;;;15.20;99.90;;;;;;5012931;28;20454;-61
2022/10/08 11:00:00;;;;;;;11.40;6.50;;;15.20;99.90;;;;;;5012493;28;20455;-61
2022/10/08 11:02:33;;;;;;;13.77;7.20;;;15.20;99.90;;;;;;5017012;28;20431;-61
2022/10/08 11:05:18;;;;;;;13.93;7.50;;;15.20;99.90;;;;;;5021556;28;20437;-62
2022/10/08 11:07:53;;;;;;;15.00;7.50;;;15.30;99.90;;;;;;5019712;28;20515;-62
2022/10/08 11:10:34;;;;;;;17.43;7.23;;;15.30;99.90;;;;;;5020788;28;20464;-63
2022/10/08 11:13:18;;;;;;;14.30;6.60;;;15.30;99.90;;;;;;5016703;28;20481;-63
2022/10/08 11:16:08;;;;;;;13.43;7.13;;;15.30;99.90;;;;;;5016541;28;20866;-68
2022/10/08 11:18:34;;;;;;;10.73;6.63;;;15.30;99.90;;;;;;5024810;28;20473;-62
2022/10/08 11:21:23;;;;;;;16.53;6.30;;;15.30;99.90;;;;;;5025931;28;20432;-61
2022/10/08 11:23:51;;;;;;;17.97;7.27;;;15.30;99.90;;;;;;5020642;28;20180;-62
2022/10/08 11:26:49;;;;;;;10.43;6.67;;;15.40;99.90;;;;;;5025897;28;21026;-62
2022/10/08 11:29:42;;;;;;;11.77;6.13;;;15.50;99.90;;;;;;4997538;28;20430;-62
2022/10/08 11:32:12;;;;;;;11.90;6.33;;;15.60;99.90;;;;;;5016578;28;20435;-62
2022/10/08 11:34:45;;;;;;;12.93;6.10;;;15.70;99.90;;;;;;5011295;28;20442;-62
2022/10/08 11:37:39;;;;;;;14.17;5.97;;;15.70;99.90;;;;;;5016760;28;21064;-61
2022/10/08 11:40:39;;;;;;;14.53;6.60;;;15.70;99.90;;;;;;5023942;28;20533;-63
2022/10/08 11:43:14;;;;;;;13.03;5.50;;;15.80;99.90;;;;;;5019006;28;20431;-61
2022/10/08 11:45:43;;;;;;;11.20;5.60;;;15.80;99.90;;;;;;5026638;28;20450;-61
2022/10/08 11:48:36;;;;;;;8.03;5.77;;;15.80;99.90;;;;;;5012590;28;20443;-61
2022/10/08 11:51:20;;;;;;;10.60;6.20;;;15.80;99.90;;;;;;5019444;28;20438;-63
2022/10/08 11:54:04;;;;;;;10.07;5.67;;;15.80;99.90;;;;;;5018054;28;20465;-63
2022/10/08 11:56:31;;;;;;;16.27;6.30;;;15.80;99.90;;;;;;5022374;28;20458;-64
2022/10/08 11:59:04;;;;;;;14.53;6.23;;;15.70;99.90;;;;;;5024818;28;20473;-66
2022/10/08 12:01:29;;;;;;;15.10;6.23;;;15.70;99.90;;;;;;5020429;28;20434;-62
2022/10/08 12:03:59;;;;;;;9.40;5.53;;;15.70;99.90;;;;;;5013954;28;21020;-62
2022/10/08 12:06:34;;;;;;;11.13;5.83;;;15.60;99.90;;;;;;5018193;28;20192;-63
2022/10/08 12:09:05;;;;;;;17.67;6.23;;;15.60;99.90;;;;;;5019830;28;20505;-65
2022/10/08 12:11:31;;;;;;;10.30;5.30;;;15.50;99.90;;;;;;4998528;28;20426;-63
2022/10/08 12:16:46;;;;;;;15.33;5.47;;;15.40;99.90;;;;;;5017956;28;20662;-63
2022/10/08 12:19:34;;;;;;;;;;;;;;;;;;;;;
2022/10/08 12:22:17;;;;;;;8.33;5.30;;;15.40;99.90;;;;;;5020633;28;20957;-63
2022/10/08 12:24:43;;;;;;;7.60;5.30;;;15.40;99.90;;;;;;4998966;28;20496;-66
2022/10/08 12:27:28;;;;;;;9.80;5.47;;;15.50;99.90;;;;;;5021272;28;20453;-63
2022/10/08 12:30:15;;;;;;;13.77;5.40;;;15.50;99.90;;;;;;5025838;28;20496;-64
2022/10/08 12:32:41;;;;;;;16.10;5.23;;;15.60;99.90;;;;;;5028657;28;20427;-63
2022/10/08 12:35:24;;;;;;;8.33;4.40;;;15.80;99.90;;;;;;5030223;28;20449;-63
2022/10/08 12:38:02;;;;;;;7.30;4.13;;;16.10;99.90;;;;;;5014563;28;20178;-64
2022/10/08 12:40:41;;;;;;;12.37;4.40;;;16.40;99.90;;;;;;5025494;28;20441;-63
2022/10/08 12:43:54;;;;;;;8.30;4.33;;;16.70;99.90;;;;;;5029111;28;20450;-64
2022/10/08 12:46:38;;;;;;;7.23;3.80;;;16.90;99.90;;;;;;4990842;28;20498;-63
2022/10/08 12:49:33;;;;;;;7.30;4.00;;;17.00;99.30;;;;;;5026550;28;20410;-63
2022/10/08 12:52:06;;;;;;;11.47;3.53;;;17.10;99.50;;;;;;5027723;28;20457;-65
2022/10/08 12:54:32;;;;;;;8.20;3.60;;;17.40;99.90;;;;;;5033846;28;20407;-63
2022/10/08 12:56:59;;;;;;;9.57;3.93;;;17.60;98.70;;;;;;5032301;28;21037;-64